Bonaria — ICUS — position and weather

sailwx.info

Track history (hours):
 
Tides and Currents Weather Stations Pressure Air Temp Water Temp Dewpoint Dewpoint Depression Visibility Wind Speed Wind Dir Waves Ship Positions

Bonaria

Last reported at 2015-Aug-27 20:10 UTC. Time now 2015-Aug-27 21:24 UTC.
Position N 41°23' E 011°12'.

Length 213 m; draft 6.7 m.

Type: Ship. MMSI: 247322400.

Date/timePositionNaut miles runAvg speedWind from/ knotsBaromVisibWave heightAir tempDewpointWater temp
2015-Aug-27 20:10N 41°23' E 011°12'1219.6
2015-Aug-27 19:32N 41°34' E 011°20'175 7.0
2015-Aug-26 18:30N 38°59' E 009°33'1920.4
2015-Aug-26 17:33N 39°08' E 009°11'6 5.3
2015-Aug-26 16:31N 39°13' E 009°06'0 0.0
2015-Aug-26 15:33N 39°13' E 009°06'0 0.0
2015-Aug-26 14:33N 39°13' E 009°06'0 0.0
2015-Aug-26 13:32N 39°13' E 009°06'0 0.0
2015-Aug-26 12:32N 39°13' E 009°06'0 0.0
2015-Aug-26 11:30N 39°13' E 009°06'0 0.0
2015-Aug-26 10:31N 39°13' E 009°06'0 0.0
2015-Aug-26 09:31N 39°13' E 009°06'0 0.0
2015-Aug-26 08:33N 39°13' E 009°06'0 0.0
2015-Aug-26 07:33N 39°13' E 009°06'0 0.0
2015-Aug-26 06:32N 39°13' E 009°06'7 6.9
2015-Aug-26 05:33N 39°08' E 009°12'1817.7
2015-Aug-26 04:33N 38°59' E 009°32'11 0.3
2015-Aug-24 18:20N 39°04' E 009°20'1316.4
2015-Aug-24 17:33N 39°12' E 009°07'1 0.5
2015-Aug-24 16:31N 39°13' E 009°06'0 0.0
2015-Aug-24 15:33N 39°13' E 009°06'0 0.0
2015-Aug-24 14:33N 39°13' E 009°06'0 0.0
2015-Aug-24 13:32N 39°13' E 009°06'0 0.0
2015-Aug-24 12:32N 39°13' E 009°06'0 0.0
2015-Aug-24 11:31N 39°13' E 009°06'0 0.0
2015-Aug-24 10:28N 39°13' E 009°06'0 0.0
2015-Aug-24 09:31N 39°13' E 009°06'0 0.0
2015-Aug-24 08:33N 39°13' E 009°06'0 0.0
2015-Aug-24 07:33N 39°13' E 009°06'0 0.0
2015-Aug-24 06:33N 39°13' E 009°06'7 7.0
2015-Aug-24 05:33N 39°08' E 009°13'6 0.2
2015-Aug-22 18:14N 39°04' E 009°19'1217.8
2015-Aug-22 17:33N 39°11' E 009°06'1 1.2
2015-Aug-22 16:32N 39°13' E 009°06'0 0.0
2015-Aug-22 15:32N 39°13' E 009°06'0 0.0
2015-Aug-22 14:31N 39°13' E 009°06'0 0.0
2015-Aug-22 13:31N 39°13' E 009°06'0 0.0
2015-Aug-22 12:33N 39°13' E 009°06'0 0.0
2015-Aug-22 11:33N 39°13' E 009°06'0 0.0
2015-Aug-22 10:33N 39°13' E 009°06'0 0.0
2015-Aug-22 09:32N 39°13' E 009°06'0 0.0
2015-Aug-22 08:32N 39°13' E 009°06'6 6.0
2015-Aug-22 07:33N 39°08' E 009°11'8 0.2
2015-Aug-20 18:26N 39°04' E 009°20'1414.8
2015-Aug-20 17:31N 39°13' E 009°06'0 0.0
2015-Aug-20 16:33N 39°13' E 009°06'0 0.0
2015-Aug-20 15:33N 39°13' E 009°06'0 0.0
2015-Aug-20 14:33N 39°13' E 009°06'0 0.0
2015-Aug-20 13:32N 39°13' E 009°06'0 0.0
2015-Aug-20 12:32N 39°13' E 009°06'0 0.0
2015-Aug-20 11:31N 39°13' E 009°06'0 0.0
2015-Aug-20 10:31N 39°13' E 009°06'0 0.0
2015-Aug-20 09:33N 39°13' E 009°06'0 0.0
2015-Aug-20 08:30N 39°13' E 009°06'5 5.7
2015-Aug-20 07:33N 39°08' E 009°11'0 0.0
2015-Aug-18 17:33N 39°09' E 009°11'5 5.0
2015-Aug-18 16:31N 39°13' E 009°06'0 0.0
2015-Aug-18 15:33N 39°13' E 009°06'0 0.0
2015-Aug-18 14:33N 39°13' E 009°06'0 0.0
2015-Aug-18 13:32N 39°13' E 009°06'0 0.0
2015-Aug-18 12:32N 39°13' E 009°06'0 0.0
2015-Aug-18 11:31N 39°13' E 009°06'0 0.0
2015-Aug-18 10:31N 39°13' E 009°06'0 0.0
2015-Aug-18 09:31N 39°13' E 009°06'0 0.0
2015-Aug-18 08:33N 39°13' E 009°06'0 0.0
2015-Aug-18 07:33N 39°13' E 009°06'0 0.0
2015-Aug-18 06:32N 39°13' E 009°06'6 5.7
2015-Aug-18 05:33N 39°08' E 009°11'1919.3
2015-Aug-18 04:33N 38°59' E 009°33'  
Track history (hours):
 
Tides and Currents Weather Stations Pressure Air Temp Water Temp Dewpoint Dewpoint Depression Visibility Wind Speed Wind Dir Waves Ship Positions

Bonaria

Last reported at 2015-Aug-27 20:10 UTC. Time now 2015-Aug-27 21:24 UTC.
Position N 41°23' E 011°12'.

Length 213 m; draft 6.7 m.

Type: Ship. MMSI: 247322400.

Date/timePositionNaut miles runAvg speedWind from/ knotsBaromVisibWave heightAir tempDewpointWater temp
2015-Aug-27 20:10N 41°23' E 011°12'1219.6
2015-Aug-27 19:32N 41°34' E 011°20'175 7.0
2015-Aug-26 18:30N 38°59' E 009°33'1920.4
2015-Aug-26 17:33N 39°08' E 009°11'6 5.3
2015-Aug-26 16:31N 39°13' E 009°06'0 0.0
2015-Aug-26 15:33N 39°13' E 009°06'0 0.0
2015-Aug-26 14:33N 39°13' E 009°06'0 0.0
2015-Aug-26 13:32N 39°13' E 009°06'0 0.0
2015-Aug-26 12:32N 39°13' E 009°06'0 0.0
2015-Aug-26 11:30N 39°13' E 009°06'0 0.0
2015-Aug-26 10:31N 39°13' E 009°06'0 0.0
2015-Aug-26 09:31N 39°13' E 009°06'0 0.0
2015-Aug-26 08:33N 39°13' E 009°06'0 0.0
2015-Aug-26 07:33N 39°13' E 009°06'0 0.0
2015-Aug-26 06:32N 39°13' E 009°06'7 6.9
2015-Aug-26 05:33N 39°08' E 009°12'1817.7
2015-Aug-26 04:33N 38°59' E 009°32'11 0.3
2015-Aug-24 18:20N 39°04' E 009°20'1316.4
2015-Aug-24 17:33N 39°12' E 009°07'1 0.5
2015-Aug-24 16:31N 39°13' E 009°06'0 0.0
2015-Aug-24 15:33N 39°13' E 009°06'0 0.0
2015-Aug-24 14:33N 39°13' E 009°06'0 0.0
2015-Aug-24 13:32N 39°13' E 009°06'0 0.0
2015-Aug-24 12:32N 39°13' E 009°06'0 0.0
2015-Aug-24 11:31N 39°13' E 009°06'0 0.0
2015-Aug-24 10:28N 39°13' E 009°06'0 0.0
2015-Aug-24 09:31N 39°13' E 009°06'0 0.0
2015-Aug-24 08:33N 39°13' E 009°06'0 0.0
2015-Aug-24 07:33N 39°13' E 009°06'0 0.0
2015-Aug-24 06:33N 39°13' E 009°06'7 7.0
2015-Aug-24 05:33N 39°08' E 009°13'6 0.2
2015-Aug-22 18:14N 39°04' E 009°19'1217.8
2015-Aug-22 17:33N 39°11' E 009°06'1 1.2
2015-Aug-22 16:32N 39°13' E 009°06'0 0.0
2015-Aug-22 15:32N 39°13' E 009°06'0 0.0
2015-Aug-22 14:31N 39°13' E 009°06'0 0.0
2015-Aug-22 13:31N 39°13' E 009°06'0 0.0
2015-Aug-22 12:33N 39°13' E 009°06'0 0.0
2015-Aug-22 11:33N 39°13' E 009°06'0 0.0
2015-Aug-22 10:33N 39°13' E 009°06'0 0.0
2015-Aug-22 09:32N 39°13' E 009°06'0 0.0
2015-Aug-22 08:32N 39°13' E 009°06'6 6.0
2015-Aug-22 07:33N 39°08' E 009°11'8 0.2
2015-Aug-20 18:26N 39°04' E 009°20'1414.8
2015-Aug-20 17:31N 39°13' E 009°06'0 0.0
2015-Aug-20 16:33N 39°13' E 009°06'0 0.0
2015-Aug-20 15:33N 39°13' E 009°06'0 0.0
2015-Aug-20 14:33N 39°13' E 009°06'0 0.0
2015-Aug-20 13:32N 39°13' E 009°06'0 0.0
2015-Aug-20 12:32N 39°13' E 009°06'0 0.0
2015-Aug-20 11:31N 39°13' E 009°06'0 0.0
2015-Aug-20 10:31N 39°13' E 009°06'0 0.0
2015-Aug-20 09:33N 39°13' E 009°06'0 0.0
2015-Aug-20 08:30N 39°13' E 009°06'5 5.7
2015-Aug-20 07:33N 39°08' E 009°11'0 0.0
2015-Aug-18 17:33N 39°09' E 009°11'5 5.0
2015-Aug-18 16:31N 39°13' E 009°06'0 0.0
2015-Aug-18 15:33N 39°13' E 009°06'0 0.0
2015-Aug-18 14:33N 39°13' E 009°06'0 0.0
2015-Aug-18 13:32N 39°13' E 009°06'0 0.0
2015-Aug-18 12:32N 39°13' E 009°06'0 0.0
2015-Aug-18 11:31N 39°13' E 009°06'0 0.0
2015-Aug-18 10:31N 39°13' E 009°06'0 0.0
2015-Aug-18 09:31N 39°13' E 009°06'0 0.0
2015-Aug-18 08:33N 39°13' E 009°06'0 0.0
2015-Aug-18 07:33N 39°13' E 009°06'0 0.0
2015-Aug-18 06:32N 39°13' E 009°06'6 5.7
2015-Aug-18 05:33N 39°08' E 009°11'1919.3
2015-Aug-18 04:33N 38°59' E 009°33'  

Dump ship's entire track history